Woodson, Texas
Current Conditions -  °F | °C
As of 10:15 AM on Tuesday 21 Oct 2014 (Local Time) from KBKD Reporting Station
Haze Haze  
Wind Chill: 71°   Ceiling: Unl
Heat Index: 71°   Visibility: 5mi
Dew Point: 58°   Wind: 0mph
Humidity: 64%   Direction: NA
Pressure: 30.12"   Gusts: NA
Location:  33.01°N, 99.05°W
Report Text: KBKD 211515Z AUTO 00000KT 5SM HZ CLR 22/14 A3012 RMK AO2 T02150144
Loading
Personal Weather Stations






























Interactive Weather Map
Tropical Storm Tracking
New forecast layout! Learn more

10-Day Weather Forecast

Advertisements
Track Severe Weather on mobile